Terminal Aerodrome Forecast
Issued by NWS

Home | Current Version | Previous Version | Graphics & Text | Print | Product List | Glossary On
Versions: 1 2 3 4 5 6 7 8 9 10 11 12 13 14 15 16 17 18 19 20 21
000
FTUS41 KCLE 171329 AAA
TAFFDY
TAF AMD
KFDY 171329Z 1713/1812 17012KT P6SM -SHRA BKN018 OVC025
      TEMPO 1714/1716 SCT018 BKN040
     FM171600 25015G24KT P6SM BKN015
     FM180000 27010KT 5SM BR VCSH OVC010=

USA.gov is the U.S. government's official web portal to all federal, state and local government web resources and services.